sensor_id;sensor_type;location;lat;lon;timestamp;temperature;humidity
16517;DHT22;8371;52.272;9.746;2023-07-16T00:00:15;24.30;60.00
16517;DHT22;8371;52.272;9.746;2023-07-16T00:02:42;24.30;59.90
16517;DHT22;8371;52.272;9.746;2023-07-16T00:05:08;24.20;59.90
16517;DHT22;8371;52.272;9.746;2023-07-16T00:07:34;24.10;59.80
16517;DHT22;8371;52.272;9.746;2023-07-16T00:10:00;24.00;59.80
16517;DHT22;8371;52.272;9.746;2023-07-16T00:12:26;24.00;60.00
16517;DHT22;8371;52.272;9.746;2023-07-16T00:14:52;23.90;60.00
16517;DHT22;8371;52.272;9.746;2023-07-16T00:17:17;23.90;60.90
16517;DHT22;8371;52.272;9.746;2023-07-16T00:19:43;23.80;60.10
16517;DHT22;8371;52.272;9.746;2023-07-16T00:22:09;23.80;60.20
16517;DHT22;8371;52.272;9.746;2023-07-16T00:24:35;23.70;60.20
16517;DHT22;8371;52.272;9.746;2023-07-16T00:27:00;23.60;60.30
16517;DHT22;8371;52.272;9.746;2023-07-16T00:29:26;23.60;60.40
16517;DHT22;8371;52.272;9.746;2023-07-16T00:31:52;23.50;60.50
16517;DHT22;8371;52.272;9.746;2023-07-16T00:34:18;23.40;60.60
16517;DHT22;8371;52.272;9.746;2023-07-16T00:36:43;23.40;60.70
16517;DHT22;8371;52.272;9.746;2023-07-16T00:39:09;23.30;60.70
16517;DHT22;8371;52.272;9.746;2023-07-16T00:41:36;23.30;60.70
16517;DHT22;8371;52.272;9.746;2023-07-16T00:44:01;23.20;60.90
16517;DHT22;8371;52.272;9.746;2023-07-16T00:46:28;23.10;61.00
16517;DHT22;8371;52.272;9.746;2023-07-16T00:48:53;23.10;61.30
16517;DHT22;8371;52.272;9.746;2023-07-16T00:51:21;23.10;61.70
16517;DHT22;8371;52.272;9.746;2023-07-16T00:53:48;23.00;61.60
16517;DHT22;8371;52.272;9.746;2023-07-16T00:56:16;23.00;61.70
16517;DHT22;8371;52.272;9.746;2023-07-16T00:58:43;22.90;61.80
16517;DHT22;8371;52.272;9.746;2023-07-16T01:01:09;22.80;62.00
16517;DHT22;8371;52.272;9.746;2023-07-16T01:03:35;22.80;62.20
16517;DHT22;8371;52.272;9.746;2023-07-16T01:09:00;22.70;62.50
16517;DHT22;8371;52.272;9.746;2023-07-16T01:11:22;22.60;62.50
16517;DHT22;8371;52.272;9.746;2023-07-16T01:13:49;22.60;62.60
16517;DHT22;8371;52.272;9.746;2023-07-16T01:16:23;22.60;62.80
16517;DHT22;8371;52.272;9.746;2023-07-16T01:18:50;22.60;63.00
16517;DHT22;8371;52.272;9.746;2023-07-16T01:21:18;22.50;63.00
16517;DHT22;8371;52.272;9.746;2023-07-16T01:24:11;22.50;63.10
16517;DHT22;8371;52.272;9.746;2023-07-16T01:31:53;22.30;63.40
16517;DHT22;8371;52.272;9.746;2023-07-16T01:34:21;22.30;63.60
16517;DHT22;8371;52.272;9.746;2023-07-16T01:36:47;22.30;63.90
16517;DHT22;8371;52.272;9.746;2023-07-16T01:39:15;22.30;64.00
16517;DHT22;8371;52.272;9.746;2023-07-16T01:41:41;22.30;64.10
16517;DHT22;8371;52.272;9.746;2023-07-16T01:44:07;22.30;64.20
16517;DHT22;8371;52.272;9.746;2023-07-16T01:46:33;22.30;64.40
16517;DHT22;8371;52.272;9.746;2023-07-16T01:48:59;22.30;64.40
16517;DHT22;8371;52.272;9.746;2023-07-16T01:51:24;22.20;64.40
16517;DHT22;8371;52.272;9.746;2023-07-16T01:53:50;22.20;64.50
16517;DHT22;8371;52.272;9.746;2023-07-16T01:56:16;22.20;64.50
16517;DHT22;8371;52.272;9.746;2023-07-16T01:58:42;22.20;64.60
16517;DHT22;8371;52.272;9.746;2023-07-16T02:01:08;22.20;64.70
16517;DHT22;8371;52.272;9.746;2023-07-16T02:03:34;22.20;64.80
16517;DHT22;8371;52.272;9.746;2023-07-16T02:05:59;22.20;64.90
16517;DHT22;8371;52.272;9.746;2023-07-16T02:08:25;22.10;64.90
16517;DHT22;8371;52.272;9.746;2023-07-16T02:10:51;22.20;65.00
16517;DHT22;8371;52.272;9.746;2023-07-16T02:13:17;22.20;65.10
16517;DHT22;8371;52.272;9.746;2023-07-16T02:15:43;22.10;65.10
16517;DHT22;8371;52.272;9.746;2023-07-16T02:18:09;22.10;65.20
16517;DHT22;8371;52.272;9.746;2023-07-16T02:20:35;22.10;65.20
16517;DHT22;8371;52.272;9.746;2023-07-16T02:23:01;22.10;65.40
16517;DHT22;8371;52.272;9.746;2023-07-16T02:25:27;22.10;65.40
16517;DHT22;8371;52.272;9.746;2023-07-16T02:27:53;22.10;65.60
16517;DHT22;8371;52.272;9.746;2023-07-16T02:30:19;22.10;65.60
16517;DHT22;8371;52.272;9.746;2023-07-16T02:32:44;22.10;65.70
16517;DHT22;8371;52.272;9.746;2023-07-16T02:35:10;22.10;65.80
16517;DHT22;8371;52.272;9.746;2023-07-16T02:37:36;22.00;65.90
16517;DHT22;8371;52.272;9.746;2023-07-16T02:40:02;22.00;65.80
16517;DHT22;8371;52.272;9.746;2023-07-16T02:42:29;22.00;65.70
16517;DHT22;8371;52.272;9.746;2023-07-16T02:44:55;22.00;65.60
16517;DHT22;8371;52.272;9.746;2023-07-16T02:47:20;22.00;65.50
16517;DHT22;8371;52.272;9.746;2023-07-16T02:49:46;22.00;65.60
16517;DHT22;8371;52.272;9.746;2023-07-16T02:52:12;21.90;65.40
16517;DHT22;8371;52.272;9.746;2023-07-16T02:54:37;21.90;65.30
16517;DHT22;8371;52.272;9.746;2023-07-16T02:57:04;21.90;65.20
16517;DHT22;8371;52.272;9.746;2023-07-16T02:59:30;21.90;65.20
16517;DHT22;8371;52.272;9.746;2023-07-16T03:01:56;21.90;65.20
16517;DHT22;8371;52.272;9.746;2023-07-16T03:04:22;21.90;65.10
16517;DHT22;8371;52.272;9.746;2023-07-16T03:06:48;21.90;65.10
16517;DHT22;8371;52.272;9.746;2023-07-16T03:09:13;21.90;65.00
16517;DHT22;8371;52.272;9.746;2023-07-16T03:11:39;21.90;64.80
16517;DHT22;8371;52.272;9.746;2023-07-16T03:14:05;21.90;64.80
16517;DHT22;8371;52.272;9.746;2023-07-16T03:16:31;21.80;64.90
16517;DHT22;8371;52.272;9.746;2023-07-16T03:18:57;21.80;64.80
16517;DHT22;8371;52.272;9.746;2023-07-16T03:21:22;21.80;64.80
16517;DHT22;8371;52.272;9.746;2023-07-16T03:23:48;21.70;64.80
16517;DHT22;8371;52.272;9.746;2023-07-16T03:26:14;21.70;64.80
16517;DHT22;8371;52.272;9.746;2023-07-16T03:28:40;21.70;65.00
16517;DHT22;8371;52.272;9.746;2023-07-16T03:31:06;21.60;65.00
16517;DHT22;8371;52.272;9.746;2023-07-16T03:33:31;21.50;64.90
16517;DHT22;8371;52.272;9.746;2023-07-16T03:35:57;21.40;65.00
16517;DHT22;8371;52.272;9.746;2023-07-16T03:38:23;21.40;65.10
16517;DHT22;8371;52.272;9.746;2023-07-16T03:40:50;21.40;65.10
16517;DHT22;8371;52.272;9.746;2023-07-16T03:43:16;21.40;65.40
16517;DHT22;8371;52.272;9.746;2023-07-16T03:45:42;21.20;65.40
16517;DHT22;8371;52.272;9.746;2023-07-16T03:48:09;21.20;65.60
16517;DHT22;8371;52.272;9.746;2023-07-16T03:50:35;21.20;65.60
16517;DHT22;8371;52.272;9.746;2023-07-16T03:53:01;21.20;65.70
16517;DHT22;8371;52.272;9.746;2023-07-16T03:55:29;21.10;65.90
16517;DHT22;8371;52.272;9.746;2023-07-16T03:57:55;21.10;66.00
16517;DHT22;8371;52.272;9.746;2023-07-16T04:00:21;21.10;66.10
16517;DHT22;8371;52.272;9.746;2023-07-16T04:02:47;21.20;66.30
16517;DHT22;8371;52.272;9.746;2023-07-16T04:05:12;21.20;66.50
16517;DHT22;8371;52.272;9.746;2023-07-16T04:07:38;21.20;66.80
16517;DHT22;8371;52.272;9.746;2023-07-16T04:10:05;21.30;66.70
16517;DHT22;8371;52.272;9.746;2023-07-16T04:12:31;21.30;66.70
16517;DHT22;8371;52.272;9.746;2023-07-16T04:14:57;21.40;67.40
16517;DHT22;8371;52.272;9.746;2023-07-16T04:17:24;21.40;67.00
16517;DHT22;8371;52.272;9.746;2023-07-16T04:19:49;21.50;67.10
16517;DHT22;8371;52.272;9.746;2023-07-16T04:22:15;21.60;67.50
16517;DHT22;8371;52.272;9.746;2023-07-16T04:24:41;21.80;67.80
16517;DHT22;8371;52.272;9.746;2023-07-16T04:27:09;21.90;68.60
16517;DHT22;8371;52.272;9.746;2023-07-16T04:29:38;22.10;68.00
16517;DHT22;8371;52.272;9.746;2023-07-16T04:32:04;22.20;67.90
16517;DHT22;8371;52.272;9.746;2023-07-16T04:34:30;22.60;68.00
16517;DHT22;8371;52.272;9.746;2023-07-16T04:36:56;22.80;67.70
16517;DHT22;8371;52.272;9.746;2023-07-16T04:39:21;23.00;67.30
16517;DHT22;8371;52.272;9.746;2023-07-16T04:41:47;23.20;66.90
16517;DHT22;8371;52.272;9.746;2023-07-16T04:44:13;23.40;66.50
16517;DHT22;8371;52.272;9.746;2023-07-16T04:46:39;23.60;66.20
16517;DHT22;8371;52.272;9.746;2023-07-16T04:49:05;23.70;65.90
16517;DHT22;8371;52.272;9.746;2023-07-16T04:51:31;23.90;65.70
16517;DHT22;8371;52.272;9.746;2023-07-16T04:53:57;24.00;65.40
16517;DHT22;8371;52.272;9.746;2023-07-16T04:56:23;24.10;65.20
16517;DHT22;8371;52.272;9.746;2023-07-16T04:58:49;24.30;65.00
16517;DHT22;8371;52.272;9.746;2023-07-16T05:01:15;24.40;64.70
16517;DHT22;8371;52.272;9.746;2023-07-16T05:03:41;24.50;64.40
16517;DHT22;8371;52.272;9.746;2023-07-16T05:06:07;24.60;64.10
16517;DHT22;8371;52.272;9.746;2023-07-16T05:08:33;24.70;63.90
16517;DHT22;8371;52.272;9.746;2023-07-16T05:10:59;24.80;63.50
16517;DHT22;8371;52.272;9.746;2023-07-16T05:13:27;24.80;63.30
16517;DHT22;8371;52.272;9.746;2023-07-16T05:15:53;24.90;63.00
16517;DHT22;8371;52.272;9.746;2023-07-16T05:18:19;24.90;62.60
16517;DHT22;8371;52.272;9.746;2023-07-16T05:20:53;25.00;62.50
16517;DHT22;8371;52.272;9.746;2023-07-16T05:23:16;25.10;62.30
16517;DHT22;8371;52.272;9.746;2023-07-16T05:25:49;25.10;62.00
16517;DHT22;8371;52.272;9.746;2023-07-16T05:28:16;25.20;61.80
16517;DHT22;8371;52.272;9.746;2023-07-16T05:30:42;25.20;61.70
16517;DHT22;8371;52.272;9.746;2023-07-16T05:33:10;25.20;61.40
16517;DHT22;8371;52.272;9.746;2023-07-16T05:35:36;25.30;61.50
16517;DHT22;8371;52.272;9.746;2023-07-16T05:38:02;25.30;61.20
16517;DHT22;8371;52.272;9.746;2023-07-16T05:40:28;25.40;61.20
16517;DHT22;8371;52.272;9.746;2023-07-16T05:42:54;25.40;61.00
16517;DHT22;8371;52.272;9.746;2023-07-16T05:45:20;25.50;60.90
16517;DHT22;8371;52.272;9.746;2023-07-16T05:47:46;25.60;60.60
16517;DHT22;8371;52.272;9.746;2023-07-16T05:50:12;25.60;60.40
16517;DHT22;8371;52.272;9.746;2023-07-16T05:52:37;25.60;60.20
16517;DHT22;8371;52.272;9.746;2023-07-16T05:55:04;25.60;60.20
16517;DHT22;8371;52.272;9.746;2023-07-16T05:57:30;25.70;60.00
16517;DHT22;8371;52.272;9.746;2023-07-16T05:59:55;25.70;60.10
16517;DHT22;8371;52.272;9.746;2023-07-16T06:02:21;25.80;60.10
16517;DHT22;8371;52.272;9.746;2023-07-16T06:04:47;25.90;59.80
16517;DHT22;8371;52.272;9.746;2023-07-16T06:07:13;25.90;59.60
16517;DHT22;8371;52.272;9.746;2023-07-16T06:09:39;26.00;59.30
16517;DHT22;8371;52.272;9.746;2023-07-16T06:12:05;26.10;59.30
16517;DHT22;8371;52.272;9.746;2023-07-16T06:14:30;26.10;59.30
16517;DHT22;8371;52.272;9.746;2023-07-16T06:16:56;26.10;59.10
16517;DHT22;8371;52.272;9.746;2023-07-16T06:19:23;26.10;59.00
16517;DHT22;8371;52.272;9.746;2023-07-16T06:21:49;26.20;59.00
16517;DHT22;8371;52.272;9.746;2023-07-16T06:24:14;26.20;59.10
16517;DHT22;8371;52.272;9.746;2023-07-16T06:26:40;26.30;59.10
16517;DHT22;8371;52.272;9.746;2023-07-16T06:29:06;26.40;58.90
16517;DHT22;8371;52.272;9.746;2023-07-16T06:31:32;26.50;58.90
16517;DHT22;8371;52.272;9.746;2023-07-16T06:33:58;26.60;59.00
16517;DHT22;8371;52.272;9.746;2023-07-16T06:36:23;26.80;58.80
16517;DHT22;8371;52.272;9.746;2023-07-16T06:38:49;26.90;58.60
16517;DHT22;8371;52.272;9.746;2023-07-16T06:41:15;27.00;58.40
16517;DHT22;8371;52.272;9.746;2023-07-16T06:43:41;27.20;58.20
16517;DHT22;8371;52.272;9.746;2023-07-16T06:46:06;27.20;57.90
16517;DHT22;8371;52.272;9.746;2023-07-16T06:48:32;27.30;58.10
16517;DHT22;8371;52.272;9.746;2023-07-16T06:51:00;27.40;57.90
16517;DHT22;8371;52.272;9.746;2023-07-16T06:53:25;27.50;58.50
16517;DHT22;8371;52.272;9.746;2023-07-16T06:55:51;27.60;57.90
16517;DHT22;8371;52.272;9.746;2023-07-16T06:58:17;27.70;57.40
16517;DHT22;8371;52.272;9.746;2023-07-16T07:00:43;27.80;57.10
16517;DHT22;8371;52.272;9.746;2023-07-16T07:03:09;27.90;56.50
16517;DHT22;8371;52.272;9.746;2023-07-16T07:05:35;28.00;56.20
16517;DHT22;8371;52.272;9.746;2023-07-16T07:08:03;28.00;56.10
16517;DHT22;8371;52.272;9.746;2023-07-16T07:10:29;28.00;55.40
16517;DHT22;8371;52.272;9.746;2023-07-16T07:12:55;28.00;55.30
16517;DHT22;8371;52.272;9.746;2023-07-16T07:15:21;27.90;54.80
16517;DHT22;8371;52.272;9.746;2023-07-16T07:17:46;27.90;54.30
16517;DHT22;8371;52.272;9.746;2023-07-16T07:20:14;27.70;54.00
16517;DHT22;8371;52.272;9.746;2023-07-16T07:22:40;27.80;53.90
16517;DHT22;8371;52.272;9.746;2023-07-16T07:25:06;27.80;53.50
16517;DHT22;8371;52.272;9.746;2023-07-16T07:27:32;27.80;53.60
16517;DHT22;8371;52.272;9.746;2023-07-16T07:29:58;27.70;53.50
16517;DHT22;8371;52.272;9.746;2023-07-16T07:32:24;27.80;53.30
16517;DHT22;8371;52.272;9.746;2023-07-16T07:34:50;27.80;52.60
16517;DHT22;8371;52.272;9.746;2023-07-16T07:37:16;27.70;52.50
16517;DHT22;8371;52.272;9.746;2023-07-16T07:39:42;27.70;52.50
16517;DHT22;8371;52.272;9.746;2023-07-16T07:42:08;27.60;52.60
16517;DHT22;8371;52.272;9.746;2023-07-16T07:44:35;27.40;51.10
16517;DHT22;8371;52.272;9.746;2023-07-16T07:47:01;27.20;51.60
16517;DHT22;8371;52.272;9.746;2023-07-16T07:49:28;27.00;51.30
16517;DHT22;8371;52.272;9.746;2023-07-16T07:51:54;26.90;51.40
16517;DHT22;8371;52.272;9.746;2023-07-16T07:54:20;26.80;51.60
16517;DHT22;8371;52.272;9.746;2023-07-16T07:56:46;26.70;52.30
16517;DHT22;8371;52.272;9.746;2023-07-16T07:59:12;26.70;51.70
16517;DHT22;8371;52.272;9.746;2023-07-16T08:01:39;26.80;51.80
16517;DHT22;8371;52.272;9.746;2023-07-16T08:04:05;26.80;51.40
16517;DHT22;8371;52.272;9.746;2023-07-16T08:06:31;26.90;51.80
16517;DHT22;8371;52.272;9.746;2023-07-16T08:08:57;27.00;50.80
16517;DHT22;8371;52.272;9.746;2023-07-16T08:11:23;27.10;50.90
16517;DHT22;8371;52.272;9.746;2023-07-16T08:13:49;27.20;50.10
16517;DHT22;8371;52.272;9.746;2023-07-16T08:16:15;27.30;50.20
16517;DHT22;8371;52.272;9.746;2023-07-16T08:18:41;27.40;50.50
16517;DHT22;8371;52.272;9.746;2023-07-16T08:21:06;27.60;50.40
16517;DHT22;8371;52.272;9.746;2023-07-16T08:23:32;27.60;50.40
16517;DHT22;8371;52.272;9.746;2023-07-16T08:25:58;27.80;50.20
16517;DHT22;8371;52.272;9.746;2023-07-16T08:28:24;27.90;49.90
16517;DHT22;8371;52.272;9.746;2023-07-16T08:30:49;28.00;49.80
16517;DHT22;8371;52.272;9.746;2023-07-16T08:33:15;28.20;49.50
16517;DHT22;8371;52.272;9.746;2023-07-16T08:35:41;28.20;49.00
16517;DHT22;8371;52.272;9.746;2023-07-16T08:38:07;28.40;48.90
16517;DHT22;8371;52.272;9.746;2023-07-16T08:40:40;28.50;49.30
16517;DHT22;8371;52.272;9.746;2023-07-16T08:43:06;28.60;49.10
16517;DHT22;8371;52.272;9.746;2023-07-16T08:45:38;28.80;48.90
16517;DHT22;8371;52.272;9.746;2023-07-16T08:48:05;28.90;48.80
16517;DHT22;8371;52.272;9.746;2023-07-16T08:50:33;29.00;48.50
16517;DHT22;8371;52.272;9.746;2023-07-16T08:53:01;29.10;47.50
16517;DHT22;8371;52.272;9.746;2023-07-16T08:55:27;29.20;47.50
16517;DHT22;8371;52.272;9.746;2023-07-16T08:57:53;29.30;47.20
16517;DHT22;8371;52.272;9.746;2023-07-16T09:00:19;29.30;46.80
16517;DHT22;8371;52.272;9.746;2023-07-16T09:02:46;29.40;46.60
16517;DHT22;8371;52.272;9.746;2023-07-16T09:05:14;29.50;46.80
16517;DHT22;8371;52.272;9.746;2023-07-16T09:07:40;29.60;46.50
16517;DHT22;8371;52.272;9.746;2023-07-16T09:10:07;29.60;46.70
16517;DHT22;8371;52.272;9.746;2023-07-16T09:12:33;29.70;46.10
16517;DHT22;8371;52.272;9.746;2023-07-16T09:14:59;29.70;45.90
16517;DHT22;8371;52.272;9.746;2023-07-16T09:17:25;29.80;45.50
16517;DHT22;8371;52.272;9.746;2023-07-16T09:19:51;29.90;45.40
16517;DHT22;8371;52.272;9.746;2023-07-16T09:22:18;29.90;44.90
16517;DHT22;8371;52.272;9.746;2023-07-16T09:24:47;30.00;45.30
16517;DHT22;8371;52.272;9.746;2023-07-16T09:27:13;30.10;44.50
16517;DHT22;8371;52.272;9.746;2023-07-16T09:29:39;30.10;44.70
16517;DHT22;8371;52.272;9.746;2023-07-16T09:32:06;30.20;44.50
16517;DHT22;8371;52.272;9.746;2023-07-16T09:34:32;30.30;44.80
16517;DHT22;8371;52.272;9.746;2023-07-16T09:36:59;30.40;44.50
16517;DHT22;8371;52.272;9.746;2023-07-16T09:39:26;30.50;44.60
16517;DHT22;8371;52.272;9.746;2023-07-16T09:41:53;30.50;43.80
16517;DHT22;8371;52.272;9.746;2023-07-16T09:44:19;30.60;43.60
16517;DHT22;8371;52.272;9.746;2023-07-16T09:46:46;30.70;43.70
16517;DHT22;8371;52.272;9.746;2023-07-16T09:49:16;30.80;43.50
16517;DHT22;8371;52.272;9.746;2023-07-16T09:51:43;30.90;43.20
16517;DHT22;8371;52.272;9.746;2023-07-16T09:54:12;30.90;42.30
16517;DHT22;8371;52.272;9.746;2023-07-16T09:56:55;31.00;42.90
16517;DHT22;8371;52.272;9.746;2023-07-16T09:59:20;31.10;42.50
16517;DHT22;8371;52.272;9.746;2023-07-16T10:01:46;31.10;42.00
16517;DHT22;8371;52.272;9.746;2023-07-16T10:04:17;31.10;41.40
16517;DHT22;8371;52.272;9.746;2023-07-16T10:06:58;31.10;41.30
16517;DHT22;8371;52.272;9.746;2023-07-16T10:09:39;31.20;41.40
16517;DHT22;8371;52.272;9.746;2023-07-16T10:14:46;31.20;41.10
16517;DHT22;8371;52.272;9.746;2023-07-16T10:17:18;31.30;40.90
16517;DHT22;8371;52.272;9.746;2023-07-16T10:19:56;31.40;40.90
16517;DHT22;8371;52.272;9.746;2023-07-16T10:22:41;31.40;41.00
16517;DHT22;8371;52.272;9.746;2023-07-16T10:25:22;31.50;41.30
16517;DHT22;8371;52.272;9.746;2023-07-16T10:27:50;31.70;40.60
16517;DHT22;8371;52.272;9.746;2023-07-16T10:30:16;31.80;40.00
16517;DHT22;8371;52.272;9.746;2023-07-16T10:32:43;31.80;39.80
16517;DHT22;8371;52.272;9.746;2023-07-16T10:35:10;31.90;40.00
16517;DHT22;8371;52.272;9.746;2023-07-16T10:37:37;31.90;39.60
16517;DHT22;8371;52.272;9.746;2023-07-16T10:40:11;31.90;39.40
16517;DHT22;8371;52.272;9.746;2023-07-16T10:42:40;31.90;39.60
16517;DHT22;8371;52.272;9.746;2023-07-16T10:45:07;31.80;38.90
16517;DHT22;8371;52.272;9.746;2023-07-16T10:47:39;31.80;39.00
16517;DHT22;8371;52.272;9.746;2023-07-16T10:50:07;31.70;38.50
16517;DHT22;8371;52.272;9.746;2023-07-16T10:52:34;31.80;39.20
16517;DHT22;8371;52.272;9.746;2023-07-16T10:55:01;31.80;39.00
16517;DHT22;8371;52.272;9.746;2023-07-16T10:57:27;31.90;39.00
16517;DHT22;8371;52.272;9.746;2023-07-16T10:59:55;32.00;39.20
16517;DHT22;8371;52.272;9.746;2023-07-16T11:02:23;32.20;38.70
16517;DHT22;8371;52.272;9.746;2023-07-16T11:04:49;32.40;38.80
16517;DHT22;8371;52.272;9.746;2023-07-16T11:07:16;32.50;38.60
16517;DHT22;8371;52.272;9.746;2023-07-16T11:09:47;32.50;37.90
16517;DHT22;8371;52.272;9.746;2023-07-16T11:12:15;32.70;37.60
16517;DHT22;8371;52.272;9.746;2023-07-16T11:14:46;32.80;37.70
16517;DHT22;8371;52.272;9.746;2023-07-16T11:17:12;32.80;37.30
16517;DHT22;8371;52.272;9.746;2023-07-16T11:19:39;32.90;37.20
16517;DHT22;8371;52.272;9.746;2023-07-16T11:22:06;33.00;37.20
16517;DHT22;8371;52.272;9.746;2023-07-16T11:24:40;33.00;37.00
16517;DHT22;8371;52.272;9.746;2023-07-16T11:27:18;33.10;36.90
16517;DHT22;8371;52.272;9.746;2023-07-16T11:29:49;33.10;36.60
16517;DHT22;8371;52.272;9.746;2023-07-16T11:32:36;33.10;36.30
16517;DHT22;8371;52.272;9.746;2023-07-16T11:35:04;33.10;36.00
16517;DHT22;8371;52.272;9.746;2023-07-16T11:37:32;33.10;36.20
16517;DHT22;8371;52.272;9.746;2023-07-16T11:40:02;33.00;36.40
16517;DHT22;8371;52.272;9.746;2023-07-16T11:42:34;33.00;36.10
16517;DHT22;8371;52.272;9.746;2023-07-16T11:45:00;32.90;36.10
16517;DHT22;8371;52.272;9.746;2023-07-16T11:47:27;33.00;36.20
16517;DHT22;8371;52.272;9.746;2023-07-16T11:49:53;33.00;36.10
16517;DHT22;8371;52.272;9.746;2023-07-16T11:52:22;32.90;36.00
16517;DHT22;8371;52.272;9.746;2023-07-16T11:54:58;33.00;36.00
16517;DHT22;8371;52.272;9.746;2023-07-16T11:57:26;33.00;36.20
16517;DHT22;8371;52.272;9.746;2023-07-16T11:59:52;33.00;35.50
16517;DHT22;8371;52.272;9.746;2023-07-16T12:02:18;33.00;35.60
16517;DHT22;8371;52.272;9.746;2023-07-16T12:04:44;33.00;35.90
16517;DHT22;8371;52.272;9.746;2023-07-16T12:07:10;32.90;35.30
16517;DHT22;8371;52.272;9.746;2023-07-16T12:09:36;32.90;35.60
16517;DHT22;8371;52.272;9.746;2023-07-16T12:12:02;32.90;35.50
16517;DHT22;8371;52.272;9.746;2023-07-16T12:14:28;32.90;35.70
16517;DHT22;8371;52.272;9.746;2023-07-16T12:16:54;33.00;35.60
16517;DHT22;8371;52.272;9.746;2023-07-16T12:19:20;33.00;35.20
16517;DHT22;8371;52.272;9.746;2023-07-16T12:21:46;33.00;35.20
16517;DHT22;8371;52.272;9.746;2023-07-16T12:24:12;33.10;35.30
16517;DHT22;8371;52.272;9.746;2023-07-16T12:26:38;33.10;35.30
16517;DHT22;8371;52.272;9.746;2023-07-16T12:29:04;33.20;34.90
16517;DHT22;8371;52.272;9.746;2023-07-16T12:31:30;33.30;34.70
16517;DHT22;8371;52.272;9.746;2023-07-16T12:34:00;33.40;34.60
16517;DHT22;8371;52.272;9.746;2023-07-16T12:36:30;33.40;34.30
16517;DHT22;8371;52.272;9.746;2023-07-16T12:38:56;33.30;34.00
16517;DHT22;8371;52.272;9.746;2023-07-16T12:41:22;33.20;33.50
16517;DHT22;8371;52.272;9.746;2023-07-16T12:43:47;33.10;34.00
16517;DHT22;8371;52.272;9.746;2023-07-16T12:46:13;32.90;34.20
16517;DHT22;8371;52.272;9.746;2023-07-16T12:48:39;32.90;34.60
16517;DHT22;8371;52.272;9.746;2023-07-16T12:51:05;32.90;34.70
16517;DHT22;8371;52.272;9.746;2023-07-16T12:53:30;33.00;34.30
16517;DHT22;8371;52.272;9.746;2023-07-16T12:55:56;33.00;35.10
16517;DHT22;8371;52.272;9.746;2023-07-16T12:58:22;33.10;34.50
16517;DHT22;8371;52.272;9.746;2023-07-16T13:00:48;33.10;34.20
16517;DHT22;8371;52.272;9.746;2023-07-16T13:03:14;33.20;33.90
16517;DHT22;8371;52.272;9.746;2023-07-16T13:05:43;33.20;33.90
16517;DHT22;8371;52.272;9.746;2023-07-16T13:08:09;33.20;33.90
16517;DHT22;8371;52.272;9.746;2023-07-16T13:10:35;33.20;33.80
16517;DHT22;8371;52.272;9.746;2023-07-16T13:13:01;33.20;33.60
16517;DHT22;8371;52.272;9.746;2023-07-16T13:15:29;33.30;33.50
16517;DHT22;8371;52.272;9.746;2023-07-16T13:17:55;33.20;33.60
16517;DHT22;8371;52.272;9.746;2023-07-16T13:20:21;33.30;33.70
16517;DHT22;8371;52.272;9.746;2023-07-16T13:22:48;33.30;33.90
16517;DHT22;8371;52.272;9.746;2023-07-16T13:25:14;33.30;33.60
16517;DHT22;8371;52.272;9.746;2023-07-16T13:27:40;33.40;33.70
16517;DHT22;8371;52.272;9.746;2023-07-16T13:30:06;33.40;33.40
16517;DHT22;8371;52.272;9.746;2023-07-16T13:32:32;33.30;33.20
16517;DHT22;8371;52.272;9.746;2023-07-16T13:34:58;33.20;33.40
16517;DHT22;8371;52.272;9.746;2023-07-16T13:37:24;33.20;33.20
16517;DHT22;8371;52.272;9.746;2023-07-16T13:39:49;33.10;33.30
16517;DHT22;8371;52.272;9.746;2023-07-16T13:42:15;33.00;33.40
16517;DHT22;8371;52.272;9.746;2023-07-16T13:44:41;33.00;33.40
16517;DHT22;8371;52.272;9.746;2023-07-16T13:47:07;32.90;33.20
16517;DHT22;8371;52.272;9.746;2023-07-16T13:49:32;32.80;33.00
16517;DHT22;8371;52.272;9.746;2023-07-16T13:51:58;32.70;33.00
16517;DHT22;8371;52.272;9.746;2023-07-16T13:54:24;32.60;33.00
16517;DHT22;8371;52.272;9.746;2023-07-16T13:56:50;32.40;32.80
16517;DHT22;8371;52.272;9.746;2023-07-16T13:59:15;32.20;32.90
16517;DHT22;8371;52.272;9.746;2023-07-16T14:01:41;32.10;33.40
16517;DHT22;8371;52.272;9.746;2023-07-16T14:04:07;31.90;33.40
16517;DHT22;8371;52.272;9.746;2023-07-16T14:06:33;31.90;33.50
16517;DHT22;8371;52.272;9.746;2023-07-16T14:08:59;31.90;33.40
16517;DHT22;8371;52.272;9.746;2023-07-16T14:11:25;31.90;33.40
16517;DHT22;8371;52.272;9.746;2023-07-16T14:13:51;31.80;33.50
16517;DHT22;8371;52.272;9.746;2023-07-16T14:16:18;31.70;33.50
16517;DHT22;8371;52.272;9.746;2023-07-16T14:18:44;31.70;33.70
16517;DHT22;8371;52.272;9.746;2023-07-16T14:21:09;31.60;33.80
16517;DHT22;8371;52.272;9.746;2023-07-16T14:23:36;31.70;34.00
16517;DHT22;8371;52.272;9.746;2023-07-16T14:26:02;31.70;34.00
16517;DHT22;8371;52.272;9.746;2023-07-16T14:28:28;31.70;33.80
16517;DHT22;8371;52.272;9.746;2023-07-16T14:30:54;31.80;33.90
16517;DHT22;8371;52.272;9.746;2023-07-16T14:33:20;31.90;33.70
16517;DHT22;8371;52.272;9.746;2023-07-16T14:35:45;32.10;33.60
16517;DHT22;8371;52.272;9.746;2023-07-16T14:38:11;32.20;33.90
16517;DHT22;8371;52.272;9.746;2023-07-16T14:40:37;32.30;33.90
16517;DHT22;8371;52.272;9.746;2023-07-16T14:43:04;32.50;33.90
16517;DHT22;8371;52.272;9.746;2023-07-16T14:45:31;32.60;33.60
16517;DHT22;8371;52.272;9.746;2023-07-16T14:47:58;32.70;33.20
16517;DHT22;8371;52.272;9.746;2023-07-16T14:50:24;32.80;33.00
16517;DHT22;8371;52.272;9.746;2023-07-16T14:52:50;32.70;32.50
16517;DHT22;8371;52.272;9.746;2023-07-16T14:55:15;32.70;32.80
16517;DHT22;8371;52.272;9.746;2023-07-16T14:57:41;32.70;32.90
16517;DHT22;8371;52.272;9.746;2023-07-16T15:00:08;32.70;33.00
16517;DHT22;8371;52.272;9.746;2023-07-16T15:02:37;32.70;33.00
16517;DHT22;8371;52.272;9.746;2023-07-16T15:05:04;32.80;32.60
16517;DHT22;8371;52.272;9.746;2023-07-16T15:07:33;32.90;32.60
16517;DHT22;8371;52.272;9.746;2023-07-16T15:10:00;33.10;32.60
16517;DHT22;8371;52.272;9.746;2023-07-16T15:12:26;33.10;32.50
16517;DHT22;8371;52.272;9.746;2023-07-16T15:14:52;33.20;32.90
16517;DHT22;8371;52.272;9.746;2023-07-16T15:17:18;33.20;32.50
16517;DHT22;8371;52.272;9.746;2023-07-16T15:19:44;33.30;32.70
16517;DHT22;8371;52.272;9.746;2023-07-16T15:22:10;33.40;32.40
16517;DHT22;8371;52.272;9.746;2023-07-16T15:24:36;33.40;32.30
16517;DHT22;8371;52.272;9.746;2023-07-16T15:27:03;33.50;32.00
16517;DHT22;8371;52.272;9.746;2023-07-16T15:29:30;33.50;32.00
16517;DHT22;8371;52.272;9.746;2023-07-16T15:31:56;33.50;31.50
16517;DHT22;8371;52.272;9.746;2023-07-16T15:34:22;33.50;31.90
16517;DHT22;8371;52.272;9.746;2023-07-16T15:36:48;33.50;31.80
16517;DHT22;8371;52.272;9.746;2023-07-16T15:39:13;33.60;31.80
16517;DHT22;8371;52.272;9.746;2023-07-16T15:41:39;33.70;31.80
16517;DHT22;8371;52.272;9.746;2023-07-16T15:44:05;33.70;31.20
16517;DHT22;8371;52.272;9.746;2023-07-16T15:46:30;33.80;31.20
16517;DHT22;8371;52.272;9.746;2023-07-16T15:48:57;33.80;31.40
16517;DHT22;8371;52.272;9.746;2023-07-16T15:51:22;33.90;31.40